Time;durP1;ratioP1;P1;durP2;ratioP2;P2;SDS_P1;SDS_P2;PMS_P1;PMS_P2;Temp;Humidity;BMP_temperature;BMP_pressure;BME280_temperature;BME280_humidity;BME280_pressure;Samples;Min_cycle;Max_cycle;Signal;HPM_P1;HPM_P2
2021/10/24 00:01:19;;;;;;;14.80;10.27;;;;;;;14.33;79.79;100391.50;5049823;28;20496;-51
2021/10/24 00:03:45;;;;;;;16.13;10.38;;;;;;;14.54;78.60;100396.53;5049590;28;20078;-50
2021/10/24 00:06:10;;;;;;;17.73;10.68;;;;;;;14.31;79.51;100398.94;5049439;28;20028;-51
2021/10/24 00:08:36;;;;;;;13.60;9.75;;;;;;;14.83;76.39;100394.34;5048689;28;20021;-52
2021/10/24 00:11:01;;;;;;;13.05;8.93;;;;;;;14.65;76.11;100411.97;5048874;28;20017;-49
2021/10/24 00:13:29;;;;;;;14.65;8.77;;;;;;;14.30;77.09;100398.09;5049323;28;20605;-50
2021/10/24 00:15:54;;;;;;;14.88;8.93;;;;;;;14.32;76.72;100406.75;5050032;28;20452;-52
2021/10/24 00:18:20;;;;;;;11.90;8.65;;;;;;;14.06;76.32;100397.75;5049190;28;20033;-50
2021/10/24 00:20:45;;;;;;;12.05;7.88;;;;;;;14.36;74.83;100396.44;5049339;28;20025;-49
2021/10/24 00:23:12;;;;;;;10.95;7.55;;;;;;;14.50;73.34;100407.91;5049067;28;20461;-48
2021/10/24 00:25:37;;;;;;;12.38;8.32;;;;;;;14.33;74.14;100411.06;5047789;28;20108;-51
2021/10/24 00:28:03;;;;;;;11.27;7.88;;;;;;;14.38;73.87;100405.91;5049084;28;20028;-51
2021/10/24 00:30:28;;;;;;;12.57;7.90;;;;;;;14.14;74.75;100403.91;5049460;28;20052;-49
2021/10/24 00:32:54;;;;;;;12.00;7.38;;;;;;;13.86;76.13;100405.03;5005992;28;1250632;-49
2021/10/24 00:35:19;;;;;;;11.75;7.95;;;;;;;14.28;75.58;100406.34;5050215;28;20044;-50
2021/10/24 00:37:45;;;;;;;11.35;8.00;;;;;;;14.40;74.49;100409.19;5050076;28;20041;-49
2021/10/24 00:40:10;;;;;;;11.55;7.65;;;;;;;14.03;76.40;100394.69;5049948;28;20032;-49
2021/10/24 00:42:44;;;;;;;10.55;7.53;;;;;;;13.89;76.06;100409.94;5050104;28;20451;-48
2021/10/24 00:45:09;;;;;;;10.85;7.07;;;;;;;14.19;74.86;100410.28;5050060;28;20112;-49
2021/10/24 00:47:35;;;;;;;12.02;6.80;;;;;;;14.99;70.12;100417.16;5049981;28;20029;-48
2021/10/24 00:50:00;;;;;;;11.93;6.45;;;;;;;14.65;71.42;100416.53;5049945;28;20029;-50
2021/10/24 00:52:26;;;;;;;8.73;6.20;;;;;;;14.23;71.31;100422.22;5049643;28;20543;-50
2021/10/24 00:54:51;;;;;;;12.02;5.57;;;;;;;14.11;71.10;100421.22;5048574;28;20021;-49
2021/10/24 00:57:17;;;;;;;9.80;4.88;;;;;;;13.86;71.32;100424.56;5049002;28;20036;-49
2021/10/24 00:59:42;;;;;;;7.40;5.15;;;;;;;14.08;70.18;100419.78;5050382;28;20394;-51
2021/10/24 01:02:08;;;;;;;5.78;4.30;;;;;;;13.98;70.19;100426.63;5050454;28;20021;-50
2021/10/24 01:04:33;;;;;;;5.93;4.03;;;;;;;14.12;68.81;100425.53;5050228;28;20090;-49
2021/10/24 01:07:02;;;;;;;5.95;4.07;;;;;;;14.00;69.58;100419.19;5050835;28;20039;-49
2021/10/24 01:09:29;;;;;;;5.28;3.50;;;;;;;13.67;69.65;100428.91;5050290;28;20443;-48
2021/10/24 01:11:54;;;;;;;4.68;3.10;;;;;;;13.99;67.09;100429.09;5050519;28;20029;-48
2021/10/24 01:14:20;;;;;;;3.92;2.90;;;;;;;13.89;67.34;100423.31;5050610;28;20044;-48
2021/10/24 01:16:45;;;;;;;4.47;2.50;;;;;;;13.79;67.03;100417.59;5050494;28;20025;-48
2021/10/24 01:19:12;;;;;;;6.32;2.47;;;;;;;13.74;66.56;100425.41;5050686;28;20025;-49
2021/10/24 01:21:37;;;;;;;2.55;2.10;;;;;;;13.57;66.96;100422.34;5052476;28;20585;-48
2021/10/24 01:24:03;;;;;;;2.08;1.77;;;;;;;13.47;66.92;100433.44;5053654;28;20053;-50
2021/10/24 01:26:29;;;;;;;3.42;1.80;;;;;;;13.93;65.57;100431.75;5053475;28;20033;-50
2021/10/24 01:28:55;;;;;;;2.15;1.90;;;;;;;13.91;65.83;100431.97;5053896;28;20025;-49
2021/10/24 01:31:20;;;;;;;2.55;1.92;;;;;;;13.90;65.89;100441.03;5053496;28;20086;-49
2021/10/24 01:33:46;;;;;;;3.03;1.90;;;;;;;13.72;66.63;100438.16;5053394;28;20033;-50
2021/10/24 01:36:11;;;;;;;1.98;1.73;;;;;;;13.56;67.56;100450.94;5053439;28;20112;-51
2021/10/24 01:38:37;;;;;;;2.30;1.90;;;;;;;14.01;66.48;100447.59;5053427;28;20024;-52
2021/10/24 01:41:06;;;;;;;3.75;1.95;;;;;;;13.72;68.17;100454.22;5053339;28;20029;-51
2021/10/24 01:43:32;;;;;;;4.40;1.92;;;;;;;13.83;68.35;100451.72;5053567;28;20043;-52
2021/10/24 01:45:58;;;;;;;1.92;1.70;;;;;;;13.37;71.06;100457.09;5053703;28;20123;-53
2021/10/24 01:48:23;;;;;;;2.33;1.90;;;;;;;13.03;72.76;100462.34;5053131;28;20029;-50
2021/10/24 01:50:49;;;;;;;2.30;1.90;;;;;;;12.97;72.93;100470.38;5053424;28;20040;-52
2021/10/24 01:53:16;;;;;;;2.60;2.00;;;;;;;12.85;74.58;100475.44;5052826;28;20448;-52
2021/10/24 01:55:42;;;;;;;4.00;2.00;;;;;;;12.84;72.82;100479.97;5051781;28;20495;-52
2021/10/24 01:58:07;;;;;;;2.47;1.60;;;;;;;12.74;72.56;100484.88;5053407;28;20025;-50
2021/10/24 02:00:33;;;;;;;2.58;1.90;;;;;;;12.86;72.32;100477.91;5053681;28;20079;-52
2021/10/24 02:02:59;;;;;;;2.53;1.73;;;;;;;12.72;73.24;100476.25;5053298;28;20028;-50
2021/10/24 02:05:24;;;;;;;4.43;1.75;;;;;;;12.86;72.32;100485.94;5053287;28;20029;-50
2021/10/24 02:07:50;;;;;;;6.55;2.00;;;;;;;12.61;72.27;100488.31;5053450;28;20021;-52
2021/10/24 02:10:16;;;;;;;2.20;1.85;;;;;;;12.69;72.17;100484.63;5052675;28;20377;-53
2021/10/24 02:12:42;;;;;;;2.17;1.85;;;;;;;12.61;72.09;100498.97;5053463;28;20025;-50
2021/10/24 02:15:08;;;;;;;3.72;1.98;;;;;;;12.84;72.02;100506.69;5053042;28;20484;-52
2021/10/24 02:17:34;;;;;;;2.83;1.92;;;;;;;12.79;73.33;100513.63;5052861;28;20028;-52
2021/10/24 02:19:59;;;;;;;2.38;2.00;;;;;;;12.53;73.94;100515.19;5052560;28;20029;-52
2021/10/24 02:22:24;;;;;;;3.72;2.05;;;;;;;12.59;74.04;100513.56;5052315;28;20060;-53
2021/10/24 02:24:50;;;;;;;2.67;2.10;;;;;;;12.55;74.68;100520.31;5050804;28;20036;-52
2021/10/24 02:27:16;;;;;;;3.10;2.00;;;;;;;12.36;74.92;100512.00;5052969;28;20476;-53
2021/10/24 02:29:43;;;;;;;5.55;1.85;;;;;;;12.50;74.51;100518.22;5052816;28;20086;-53
2021/10/24 02:32:08;;;;;;;2.20;1.90;;;;;;;12.56;73.92;100513.94;5051560;28;20397;-53
2021/10/24 02:34:34;;;;;;;3.20;1.92;;;;;;;12.48;74.79;100518.41;5052538;28;20032;-54
2021/10/24 02:36:59;;;;;;;3.67;2.00;;;;;;;12.66;74.25;100507.22;5052488;28;20459;-53
2021/10/24 02:39:24;;;;;;;2.10;1.77;;;;;;;12.40;73.80;100521.25;5052359;28;20025;-53
2021/10/24 02:41:50;;;;;;;2.80;2.00;;;;;;;12.39;74.67;100521.44;5052547;28;20033;-51
2021/10/24 02:44:15;;;;;;;2.08;1.63;;;;;;;12.41;74.16;100525.56;5052441;28;20551;-52
2021/10/24 02:46:41;;;;;;;2.15;1.88;;;;;;;12.31;75.15;100523.25;5052270;28;20025;-52
2021/10/24 02:49:06;;;;;;;1.80;1.60;;;;;;;12.25;74.28;100533.88;5053276;28;20032;-50
2021/10/24 02:51:32;;;;;;;3.15;1.60;;;;;;;12.02;73.84;100505.63;5052259;28;20477;-50
2021/10/24 02:53:58;;;;;;;2.08;1.45;;;;;;;12.21;73.08;100529.97;5051796;28;20017;-50
2021/10/24 02:56:23;;;;;;;1.42;1.30;;;;;;;12.09;73.05;100527.03;5051637;28;20108;-51
2021/10/24 02:58:48;;;;;;;2.22;1.52;;;;;;;12.25;72.67;100525.88;5052377;28;20056;-49
2021/10/24 03:01:14;;;;;;;1.83;1.60;;;;;;;12.63;70.78;100538.84;5052366;28;20029;-50
2021/10/24 03:03:39;;;;;;;2.38;1.45;;;;;;;12.53;70.93;100544.53;5052043;28;20449;-51
2021/10/24 03:06:05;;;;;;;2.38;1.70;;;;;;;12.59;70.36;100546.41;5051551;28;20021;-50
2021/10/24 03:08:30;;;;;;;4.05;1.38;;;;;;;12.25;70.93;100549.91;5051677;28;20088;-51
2021/10/24 03:10:56;;;;;;;1.40;1.30;;;;;;;12.66;69.54;100554.44;5051748;28;20369;-50
2021/10/24 03:13:21;;;;;;;4.63;1.50;;;;;;;12.46;68.86;100551.69;5051724;28;20025;-53
2021/10/24 03:15:47;;;;;;;1.30;1.20;;;;;;;12.95;67.81;100561.38;5051808;28;20025;-51
2021/10/24 03:18:12;;;;;;;2.20;1.50;;;;;;;13.03;66.97;100557.72;5051103;28;20036;-52
2021/10/24 03:20:38;;;;;;;2.00;1.30;;;;;;;12.90;66.62;100563.81;5051446;28;20029;-50
2021/10/24 03:23:03;;;;;;;1.45;1.33;;;;;;;13.09;67.06;100554.25;5051619;28;20025;-51
2021/10/24 03:25:29;;;;;;;1.77;1.50;;;;;;;12.95;66.54;100560.56;5051420;28;20485;-51
2021/10/24 03:27:54;;;;;;;1.52;1.20;;;;;;;12.79;66.70;100565.19;5051344;28;20028;-52
2021/10/24 03:30:20;;;;;;;2.33;1.50;;;;;;;12.68;67.16;100560.44;5051758;28;20043;-51
2021/10/24 03:32:45;;;;;;;2.15;1.30;;;;;;;12.85;66.57;100563.59;5051521;28;20109;-50
2021/10/24 03:35:11;;;;;;;1.50;1.30;;;;;;;12.90;66.10;100553.94;5051637;28;20111;-50
2021/10/24 03:37:36;;;;;;;1.30;1.20;;;;;;;12.49;66.11;100568.13;5051825;28;20649;-50
2021/10/24 03:40:02;;;;;;;1.75;1.40;;;;;;;12.55;65.40;100565.72;5051187;28;20028;-52
2021/10/24 03:42:28;;;;;;;2.65;1.63;;;;;;;12.24;65.83;100557.09;5051566;28;20070;-49
2021/10/24 03:44:53;;;;;;;4.75;2.10;;;;;;;12.49;66.12;100565.47;5051284;28;20033;-51
2021/10/24 03:47:19;;;;;;;6.35;1.73;;;;;;;12.49;65.10;100562.78;5051273;28;20362;-50
2021/10/24 03:49:45;;;;;;;2.20;1.77;;;;;;;12.58;65.30;100557.28;5051072;28;20202;-48
2021/10/24 03:52:10;;;;;;;3.22;1.95;;;;;;;12.45;65.80;100560.69;5051235;28;20025;-51
2021/10/24 03:54:36;;;;;;;1.70;1.52;;;;;;;12.33;66.00;100561.22;5049586;28;20021;-48
2021/10/24 03:57:01;;;;;;;1.55;1.30;;;;;;;12.78;63.99;100560.09;5051242;28;20024;-51
2021/10/24 03:59:27;;;;;;;2.22;1.35;;;;;;;12.41;65.26;100565.59;5050883;28;20508;-49
2021/10/24 04:01:52;;;;;;;4.15;1.40;;;;;;;12.42;65.95;100566.44;5051243;28;20033;-50
2021/10/24 04:04:18;;;;;;;1.40;1.30;;;;;;;12.37;66.08;100576.88;5051002;28;20036;-50
2021/10/24 04:06:43;;;;;;;1.45;1.25;;;;;;;12.11;66.31;100575.66;5050834;28;20036;-49
2021/10/24 04:09:09;;;;;;;3.08;2.20;;;;;;;12.33;66.20;100569.25;5050117;28;20437;-52
2021/10/24 04:11:35;;;;;;;2.10;1.52;;;;;;;12.28;66.25;100576.19;5051026;28;20032;-50
2021/10/24 04:14:00;;;;;;;1.48;1.10;;;;;;;12.28;66.06;100579.69;5051059;28;20028;-49
2021/10/24 04:16:26;;;;;;;1.65;1.40;;;;;;;12.71;64.14;100579.53;5050891;28;20017;-51
2021/10/24 04:18:51;;;;;;;1.92;1.50;;;;;;;12.73;63.64;100578.53;5050754;28;20032;-49
2021/10/24 04:21:16;;;;;;;1.38;1.27;;;;;;;12.51;64.12;100570.63;5050505;28;20036;-49
2021/10/24 04:23:42;;;;;;;2.40;1.45;;;;;;;12.44;63.84;100583.09;5050206;28;20036;-50
2021/10/24 04:26:08;;;;;;;2.83;1.63;;;;;;;12.39;64.09;100575.66;5050573;28;20351;-51
2021/10/24 04:28:33;;;;;;;1.73;1.35;;;;;;;12.15;64.86;100576.09;5051228;28;20064;-50
2021/10/24 04:30:59;;;;;;;1.75;1.60;;;;;;;12.21;63.89;100581.47;5051032;28;20029;-49
2021/10/24 04:33:24;;;;;;;2.05;1.58;;;;;;;12.17;64.12;100595.41;5050803;28;20053;-50
2021/10/24 04:35:50;;;;;;;2.20;1.75;;;;;;;12.03;63.95;100603.31;5051485;28;20079;-52
2021/10/24 04:38:15;;;;;;;2.95;1.52;;;;;;;12.42;63.18;100603.81;5050819;28;20025;-52
2021/10/24 04:40:41;;;;;;;1.90;1.42;;;;;;;12.12;62.91;100601.31;5051061;28;20373;-49
2021/10/24 04:43:06;;;;;;;2.30;1.65;;;;;;;12.17;62.85;100596.25;5049092;28;20024;-50
2021/10/24 04:45:34;;;;;;;3.20;1.75;;;;;;;12.20;63.44;100603.84;5035111;28;20079;-50
2021/10/24 04:48:00;;;;;;;2.58;1.67;;;;;;;12.45;63.28;100596.25;5044801;28;20041;-51
2021/10/24 04:50:26;;;;;;;3.55;1.48;;;;;;;12.23;62.55;100602.66;5050399;28;20029;-49
2021/10/24 04:52:51;;;;;;;2.97;1.60;;;;;;;12.21;63.28;100612.69;5048366;28;20029;-51
2021/10/24 04:55:17;;;;;;;4.05;1.50;;;;;;;12.22;62.29;100612.50;5050599;28;20452;-51
2021/10/24 04:57:42;;;;;;;2.90;1.48;;;;;;;12.01;62.36;100621.31;5045116;28;20385;-49
2021/10/24 05:00:08;;;;;;;2.85;2.15;;;;;;;12.00;62.35;100625.03;5033952;28;20029;-49
2021/10/24 05:02:34;;;;;;;2.80;1.67;;;;;;;12.17;62.32;100630.09;5032947;28;20409;-50
2021/10/24 05:05:00;;;;;;;2.63;1.35;;;;;;;11.93;61.65;100626.78;5033104;28;20114;-51
2021/10/24 05:07:25;;;;;;;2.10;1.65;;;;;;;11.98;61.32;100632.41;5032623;28;20025;-51
2021/10/24 05:09:51;;;;;;;3.15;1.52;;;;;;;12.18;60.68;100631.75;5047832;28;20029;-49
2021/10/24 05:12:17;;;;;;;2.30;1.70;;;;;;;12.03;59.91;100635.31;5052850;28;20358;-49
2021/10/24 05:14:42;;;;;;;1.77;1.58;;;;;;;12.08;60.08;100642.75;5052676;28;20048;-50
2021/10/24 05:17:08;;;;;;;3.97;2.00;;;;;;;12.21;60.93;100639.38;5046102;28;20057;-51
2021/10/24 05:19:33;;;;;;;4.65;2.00;;;;;;;12.23;59.25;100638.16;5033112;28;20021;-50
2021/10/24 05:21:59;;;;;;;3.17;1.60;;;;;;;12.31;58.08;100646.00;5044492;28;20071;-48
2021/10/24 05:24:24;;;;;;;6.65;1.90;;;;;;;12.00;58.72;100641.03;5041492;28;20036;-49
2021/10/24 05:26:49;;;;;;;3.92;1.80;;;;;;;12.37;57.11;100655.09;5053431;28;20397;-47
2021/10/24 05:29:15;;;;;;;3.83;2.25;;;;;;;12.08;57.00;100654.22;5053286;28;20094;-51
2021/10/24 05:31:40;;;;;;;2.97;1.90;;;;;;;12.22;57.25;100665.88;5053570;28;20060;-51
2021/10/24 05:34:06;;;;;;;4.13;1.80;;;;;;;12.26;56.60;100667.13;5053613;28;20472;-50
2021/10/24 05:36:31;;;;;;;4.63;1.65;;;;;;;12.26;56.38;100684.97;5053645;28;20025;-50
2021/10/24 05:38:58;;;;;;;2.13;1.63;;;;;;;12.08;57.07;100688.09;5053391;28;20052;-49
2021/10/24 05:41:24;;;;;;;3.33;1.70;;;;;;;12.21;55.89;100693.56;5053720;28;20043;-49
2021/10/24 05:43:49;;;;;;;4.18;1.80;;;;;;;12.38;55.81;100695.97;5053686;28;20036;-50
2021/10/24 05:46:15;;;;;;;4.28;1.70;;;;;;;12.23;55.85;100696.84;5046680;28;20025;-48
2021/10/24 05:48:41;;;;;;;4.18;1.77;;;;;;;12.09;56.00;100706.59;5052628;28;20029;-49
2021/10/24 05:51:09;;;;;;;5.97;1.45;;;;;;;12.22;55.05;100711.25;5042296;28;20055;-49
2021/10/24 05:53:35;;;;;;;3.90;2.20;;;;;;;12.21;55.05;100714.91;5053251;28;20029;-50
2021/10/24 05:56:01;;;;;;;4.25;2.30;;;;;;;12.30;54.39;100712.94;5053069;28;20100;-49
2021/10/24 05:58:28;;;;;;;6.43;2.10;;;;;;;12.23;54.30;100723.53;5053188;28;20021;-48
2021/10/24 06:00:54;;;;;;;3.33;2.03;;;;;;;12.33;53.94;100731.22;5053088;28;20021;-51
2021/10/24 06:03:19;;;;;;;3.03;2.00;;;;;;;12.40;52.86;100729.47;5053116;28;20492;-50
2021/10/24 06:05:45;;;;;;;2.75;1.70;;;;;;;12.38;53.37;100734.16;5052982;28;20032;-48
2021/10/24 06:08:20;;;;;;;4.82;1.92;;;;;;;12.27;53.39;100742.69;5052713;28;20045;-48
2021/10/24 06:10:46;;;;;;;3.30;2.03;;;;;;;12.43;53.16;100738.91;5053123;28;20108;-49
2021/10/24 06:13:11;;;;;;;4.35;2.20;;;;;;;12.71;53.22;100746.97;5052770;28;20167;-47
2021/10/24 06:15:39;;;;;;;3.03;2.03;;;;;;;12.46;53.40;100755.38;5052796;28;20013;-50
2021/10/24 06:18:05;;;;;;;4.07;2.17;;;;;;;12.71;53.25;100753.13;5052972;28;20143;-50
2021/10/24 06:20:31;;;;;;;2.83;2.13;;;;;;;12.67;52.65;100762.56;5052995;28;20029;-48
2021/10/24 06:22:56;;;;;;;2.65;2.05;;;;;;;12.64;53.12;100756.75;5052287;28;20107;-38
2021/10/24 06:25:22;;;;;;;2.67;2.10;;;;;;;12.80;53.14;100755.69;5051576;28;20039;-38
2021/10/24 06:27:47;;;;;;;2.90;2.00;;;;;;;12.60;53.75;100748.31;5051825;28;20025;-37
2021/10/24 06:30:14;;;;;;;5.45;3.35;;;;;;;12.62;54.52;100766.81;5051145;28;20157;-38
2021/10/24 06:32:40;;;;;;;6.90;4.65;;;;;;;13.02;53.29;100767.13;5050884;28;20123;-38
2021/10/24 06:35:05;;;;;;;4.85;2.40;;;;;;;12.87;53.89;100767.22;5033204;28;20433;-38
2021/10/24 06:37:38;;;;;;;7.57;5.28;;;;;;;12.83;53.70;100773.97;5051678;28;20044;-39
2021/10/24 06:40:05;;;;;;;5.32;3.30;;;;;;;13.02;52.59;100784.00;5051671;28;20032;-38
2021/10/24 06:42:30;;;;;;;23.85;12.32;;;;;;;13.02;52.62;100780.50;5051766;28;20024;-38
2021/10/24 06:44:55;;;;;;;9.13;2.60;;;;;;;13.36;51.74;100785.06;5051582;28;20459;-37
2021/10/24 06:47:21;;;;;;;3.65;2.40;;;;;;;14.20;50.95;100794.75;5060258;28;20021;-39
2021/10/24 06:49:46;;;;;;;3.08;2.30;;;;;;;14.03;50.75;100796.94;5071668;28;20040;-39
2021/10/24 06:52:12;;;;;;;3.08;2.30;;;;;;;13.69;50.69;100795.97;5071416;28;20488;-38
2021/10/24 06:54:37;;;;;;;3.78;2.40;;;;;;;13.42;51.45;100792.34;5070988;28;20021;-38
2021/10/24 06:57:03;;;;;;;4.28;2.60;;;;;;;13.51;50.78;100789.50;5071586;28;20018;-39
2021/10/24 06:59:28;;;;;;;3.13;2.50;;;;;;;13.54;51.59;100797.13;5068544;28;20588;-39
2021/10/24 07:01:54;;;;;;;5.05;3.40;;;;;;;13.52;50.70;100802.66;5049815;28;20021;-38
2021/10/24 07:04:20;;;;;;;4.53;3.10;;;;;;;14.03;49.97;100804.97;5051422;28;20104;-38
2021/10/24 07:06:46;;;;;;;4.32;2.70;;;;;;;14.57;48.43;100803.28;5051137;28;20024;-39
2021/10/24 07:09:11;;;;;;;6.60;3.50;;;;;;;14.97;47.55;100802.47;5050613;28;20029;-38
2021/10/24 07:11:37;;;;;;;5.35;3.00;;;;;;;15.60;47.30;100808.16;5050661;28;20021;-38
2021/10/24 07:14:02;;;;;;;4.25;2.67;;;;;;;15.60;45.11;100810.84;5050638;28;20381;-39
2021/10/24 07:16:27;;;;;;;3.05;2.50;;;;;;;15.06;46.74;100801.25;5050761;28;20025;-38
2021/10/24 07:18:53;;;;;;;3.47;2.67;;;;;;;14.91;46.51;100812.16;5050388;28;20385;-39
2021/10/24 07:21:18;;;;;;;4.63;3.22;;;;;;;14.88;47.64;100812.56;5050170;28;20036;-38
2021/10/24 07:23:44;;;;;;;4.32;3.10;;;;;;;15.56;46.29;100814.97;5050416;28;20452;-38
2021/10/24 07:26:09;;;;;;;4.50;3.20;;;;;;;15.14;46.19;100805.56;5049781;28;20025;-38
2021/10/24 07:28:35;;;;;;;13.80;8.80;;;;;;;14.64;47.20;100822.03;5047790;28;20025;-38
2021/10/24 07:31:00;;;;;;;24.55;14.43;;;;;;;14.95;46.93;100820.63;5050506;28;20527;-38
2021/10/24 07:33:26;;;;;;;5.50;3.45;;;;;;;15.09;46.41;100824.94;5036955;28;20087;-38
2021/10/24 07:35:51;;;;;;;5.75;3.20;;;;;;;15.04;45.75;100838.97;5043981;28;20082;-38
2021/10/24 07:38:16;;;;;;;6.43;3.35;;;;;;;14.83;46.85;100826.59;5050479;28;20017;-38
2021/10/24 07:40:49;;;;;;;3.75;3.05;;;;;;;14.46;47.10;100834.13;5050529;28;20070;-38
2021/10/24 07:43:18;;;;;;;6.57;3.40;;;;;;;14.66;48.60;100839.56;5050306;28;20021;-38
2021/10/24 07:45:46;;;;;;;5.00;3.80;;;;;;;15.30;46.17;100836.47;5050002;28;20485;-38
2021/10/24 07:48:12;;;;;;;4.88;3.63;;;;;;;15.36;46.52;100852.56;5054857;28;20429;-38
2021/10/24 07:50:37;;;;;;;5.57;3.80;;;;;;;15.35;45.92;100834.84;5050148;28;20027;-39
2021/10/24 07:53:03;;;;;;;5.85;3.60;;;;;;;15.78;46.08;100830.84;5049808;28;20037;-39
2021/10/24 07:55:28;;;;;;;6.45;3.40;;;;;;;16.01;44.31;100833.88;5050315;28;20025;-38
2021/10/24 07:57:55;;;;;;;4.32;3.03;;;;;;;16.71;43.75;100840.31;5050236;28;20032;-39
2021/10/24 08:00:20;;;;;;;7.18;3.83;;;;;;;16.18;44.75;100838.72;5043461;28;20611;-39
2021/10/24 08:02:46;;;;;;;6.07;3.20;;;;;;;16.12;44.73;100835.03;5047820;28;20040;-39
2021/10/24 08:05:12;;;;;;;4.90;3.50;;;;;;;16.52;43.67;100836.69;5049806;28;20079;-39
2021/10/24 08:07:39;;;;;;;4.32;3.50;;;;;;;16.09;44.51;100840.00;5050107;28;20020;-39
2021/10/24 08:10:08;;;;;;;9.50;6.53;;;;;;;16.17;43.76;100834.41;5049975;28;20110;-39
2021/10/24 08:12:34;;;;;;;5.82;3.90;;;;;;;15.92;44.56;100842.38;5049960;28;20032;-40
2021/10/24 08:15:00;;;;;;;4.78;3.53;;;;;;;16.85;41.92;100839.22;5049513;28;20075;-39
2021/10/24 08:17:25;;;;;;;4.97;3.60;;;;;;;16.75;42.23;100845.03;5056309;28;20190;-39
2021/10/24 08:19:51;;;;;;;4.95;3.15;;;;;;;16.96;43.01;100846.56;5060619;28;20484;-39
2021/10/24 08:22:18;;;;;;;5.57;3.10;;;;;;;17.40;40.78;100851.97;5052416;28;20146;-37
2021/10/24 08:24:45;;;;;;;4.47;3.50;;;;;;;17.20;41.09;100854.84;5049863;28;20024;-39
2021/10/24 08:27:10;;;;;;;5.15;3.30;;;;;;;17.68;39.86;100862.25;5049677;28;20065;-38
2021/10/24 08:29:37;;;;;;;5.22;3.60;;;;;;;17.42;40.21;100857.97;5048893;28;20029;-47
2021/10/24 08:32:05;;;;;;;4.70;3.30;;;;;;;17.39;40.55;100861.91;5051733;28;20102;-49
2021/10/24 08:34:31;;;;;;;5.15;3.30;;;;;;;18.24;39.92;100864.94;5053230;28;20082;-49
2021/10/24 08:36:57;;;;;;;5.78;3.35;;;;;;;18.58;39.04;100863.44;5053003;28;20048;-50
2021/10/24 08:39:22;;;;;;;4.63;3.22;;;;;;;18.15;39.95;100865.25;5052687;28;20492;-48
2021/10/24 08:41:49;;;;;;;4.90;3.20;;;;;;;18.03;39.20;100860.84;5053176;28;20102;-49
2021/10/24 08:44:15;;;;;;;3.78;3.20;;;;;;;18.28;38.23;100866.97;5051902;28;20059;-47
2021/10/24 08:46:40;;;;;;;7.03;3.30;;;;;;;18.07;39.16;100875.53;5053120;28;20052;-50
2021/10/24 08:49:07;;;;;;;5.78;3.42;;;;;;;18.23;38.82;100876.78;5052941;28;20048;-48
2021/10/24 08:51:33;;;;;;;3.80;3.00;;;;;;;18.59;38.58;100878.56;5053209;28;20040;-49
2021/10/24 08:54:00;;;;;;;4.80;3.22;;;;;;;18.27;38.18;100883.38;5053157;28;20377;-49
2021/10/24 08:56:28;;;;;;;4.32;3.08;;;;;;;18.70;38.03;100887.78;5053341;28;20021;-49
2021/10/24 08:58:53;;;;;;;4.15;3.10;;;;;;;18.74;36.96;100889.75;5053341;28;20024;-47
2021/10/24 09:01:19;;;;;;;5.00;3.40;;;;;;;18.24;38.07;100875.72;5053221;28;20021;-47
2021/10/24 09:04:11;;;;;;;4.90;2.95;;;;;;;18.52;38.04;100883.22;5053062;28;20644;-37
2021/10/24 09:06:56;;;;;;;4.45;3.30;;;;;;;19.66;35.77;100883.09;5053128;28;20640;-38
2021/10/24 09:09:25;;;;;;;4.95;3.15;;;;;;;18.54;36.68;100884.66;5052494;28;20128;-38
2021/10/24 09:11:52;;;;;;;13.25;8.00;;;;;;;18.91;36.87;100878.34;5052480;28;20294;-37
2021/10/24 09:14:52;;;;;;;7.88;3.63;;;;;;;19.31;36.46;100883.91;5052587;28;20481;-38
2021/10/24 09:17:35;;;;;;;5.50;3.30;;;;;;;17.95;38.03;100878.13;5052555;28;20033;-49
2021/10/24 09:20:02;;;;;;;3.85;2.80;;;;;;;18.81;36.58;100876.22;5052837;28;20025;-49
2021/10/24 09:22:29;;;;;;;3.90;2.92;;;;;;;18.90;36.64;100876.69;5052600;28;20553;-47
2021/10/24 09:25:06;;;;;;;4.03;2.80;;;;;;;18.81;35.13;100883.47;5052500;28;20104;-48
2021/10/24 09:27:44;;;;;;;3.42;2.72;;;;;;;18.68;36.40;100879.91;5052511;28;20116;-38
2021/10/24 09:30:21;;;;;;;4.60;3.20;;;;;;;18.20;36.81;100882.63;5051157;28;20056;-38
2021/10/24 09:32:57;;;;;;;5.03;2.90;;;;;;;18.40;37.11;100877.78;5052495;28;20060;-38
2021/10/24 09:35:24;;;;;;;4.05;2.70;;;;;;;19.09;36.32;100880.97;5051388;28;20025;-38
2021/10/24 09:37:50;;;;;;;4.10;2.90;;;;;;;18.97;36.55;100882.81;5052636;28;20053;-38
2021/10/24 09:40:16;;;;;;;6.63;2.90;;;;;;;19.23;35.58;100880.75;5052106;28;20087;-38
2021/10/24 09:42:42;;;;;;;4.03;2.70;;;;;;;19.30;35.22;100884.16;5051721;28;20024;-38
2021/10/24 09:45:10;;;;;;;4.28;3.13;;;;;;;19.02;34.50;100884.81;5051163;28;20083;-38
2021/10/24 09:47:45;;;;;;;4.28;2.97;;;;;;;19.02;33.79;100884.81;5056246;28;20017;-47
2021/10/24 09:50:29;;;;;;;5.18;2.90;;;;;;;19.02;34.27;100890.22;5051728;28;20029;-47
2021/10/24 09:53:12;;;;;;;3.00;2.40;;;;;;;19.03;34.29;100889.97;5050818;28;20049;-48
2021/10/24 09:55:39;;;;;;;3.35;2.70;;;;;;;18.98;34.28;100887.16;5052010;28;20021;-48
2021/10/24 09:58:04;;;;;;;34.88;19.77;;;;;;;18.64;35.51;100881.41;5051758;28;20036;-49
2021/10/24 10:00:30;;;;;;;9.60;6.65;;;;;;;18.87;34.49;100891.47;5052079;28;20025;-47
2021/10/24 10:02:57;;;;;;;3.30;2.50;;;;;;;19.51;33.44;100890.84;5051044;28;20127;-48
2021/10/24 10:05:23;;;;;;;4.03;2.35;;;;;;;19.50;33.29;100883.81;5033641;28;20114;-47
2021/10/24 10:07:48;;;;;;;3.10;2.22;;;;;;;19.30;32.88;100886.84;5051616;28;20557;-50
2021/10/24 10:10:14;;;;;;;3.47;2.80;;;;;;;18.43;33.20;100887.28;5051988;28;20050;-48
2021/10/24 10:12:44;;;;;;;4.57;2.75;;;;;;;18.03;34.51;100882.41;5052291;28;20055;-49
2021/10/24 10:15:09;;;;;;;;;;;;;;;19.03;33.53;100886.47;5052707;28;20489;-47
2021/10/24 10:17:35;;;;;;;5.70;3.05;;;;;;;19.37;33.56;100874.06;5050512;28;19935;-49
2021/10/24 10:20:19;;;;;;;5.30;2.78;;;;;;;18.78;35.31;100892.81;5034190;28;20025;-38
2021/10/24 10:23:05;;;;;;;3.75;2.70;;;;;;;18.96;34.16;100889.25;5050973;28;20353;-38
2021/10/24 10:25:31;;;;;;;5.00;2.40;;;;;;;19.69;32.19;100884.53;5051038;28;20025;-38
2021/10/24 10:27:57;;;;;;;6.63;2.50;;;;;;;20.48;31.87;100878.56;5051958;28;20025;-38
2021/10/24 10:30:36;;;;;;;3.50;2.55;;;;;;;19.82;31.72;100884.28;5052467;28;20039;-38
2021/10/24 10:33:04;;;;;;;3.22;2.58;;;;;;;18.88;33.07;100895.81;5051953;28;20406;-37
2021/10/24 10:35:29;;;;;;;4.15;2.53;;;;;;;18.90;33.55;100892.88;5052160;28;20024;-38
2021/10/24 10:37:56;;;;;;;3.92;2.65;;;;;;;19.08;33.99;100890.13;5052482;28;20021;-39
2021/10/24 10:40:25;;;;;;;5.63;2.45;;;;;;;19.39;33.71;100890.03;5051684;28;20370;-39
2021/10/24 10:42:55;;;;;;;4.55;3.03;;;;;;;18.84;34.04;100888.41;5052513;28;20025;-39
2021/10/24 10:45:25;;;;;;;3.75;3.00;;;;;;;19.36;32.54;100890.50;5052147;28;20031;-38
2021/10/24 10:47:55;;;;;;;4.65;3.38;;;;;;;20.63;34.34;100892.41;5065181;28;20071;-39
2021/10/24 10:50:39;;;;;;;4.60;3.00;;;;;;;21.84;30.15;100888.41;5071862;28;20028;-39
2021/10/24 10:53:06;;;;;;;4.35;3.13;;;;;;;20.82;30.69;100890.31;5055244;28;20033;-39
2021/10/24 10:55:57;;;;;;;4.30;3.20;;;;;;;19.66;32.23;100896.59;5050084;28;20150;-50
2021/10/24 10:58:34;;;;;;;22.50;14.52;;;;;;;20.02;32.90;100885.78;5050395;28;20025;-51
2021/10/24 11:01:00;;;;;;;8.48;4.60;;;;;;;19.76;33.50;100869.03;5050319;28;20447;-48
2021/10/24 11:03:48;;;;;;;3.10;2.58;;;;;;;18.86;38.02;100900.59;5050422;28;20404;-48
2021/10/24 11:06:25;;;;;;;5.25;3.10;;;;;;;18.81;39.53;100900.50;5048957;28;20139;-50
2021/10/24 11:08:58;;;;;;;4.13;2.70;;;;;;;17.90;41.56;100896.84;5048518;28;20057;-47
2021/10/24 11:14:16;;;;;;;4.85;2.40;;;;;;;17.31;42.54;100904.44;5047959;28;20025;-47
2021/10/24 11:16:48;;;;;;;4.40;2.70;;;;;;;16.94;43.92;100904.28;5050694;28;20047;-47
2021/10/24 11:19:29;;;;;;;4.18;2.50;;;;;;;16.92;44.45;100915.25;5050071;28;20043;-47
2021/10/24 11:21:58;;;;;;;3.35;2.58;;;;;;;16.81;43.56;100910.53;5048928;28;20436;-38
2021/10/24 11:24:46;;;;;;;6.55;2.80;;;;;;;16.09;45.18;100905.28;5044701;28;20427;-38
2021/10/24 11:27:27;;;;;;;4.55;2.90;;;;;;;16.42;44.32;100897.09;5047065;28;20036;-38